sensor_id;sensor_type;location;lat;lon;timestamp;P1;durP1;ratioP1;P2;durP2;ratioP2
13611;SDS011;6877;51.436;6.774;2023-07-22T00:01:10;16.90;;;8.20;;
13611;SDS011;6877;51.436;6.774;2023-07-22T00:03:37;13.38;;;6.97;;
13611;SDS011;6877;51.436;6.774;2023-07-22T00:06:04;13.05;;;7.60;;
13611;SDS011;6877;51.436;6.774;2023-07-22T00:08:32;10.60;;;7.10;;
13611;SDS011;6877;51.436;6.774;2023-07-22T00:10:59;17.13;;;8.93;;
13611;SDS011;6877;51.436;6.774;2023-07-22T00:13:26;15.45;;;8.02;;
13611;SDS011;6877;51.436;6.774;2023-07-22T00:15:56;14.98;;;8.38;;
13611;SDS011;6877;51.436;6.774;2023-07-22T00:18:23;12.68;;;7.78;;
13611;SDS011;6877;51.436;6.774;2023-07-22T00:20:50;13.63;;;8.27;;
13611;SDS011;6877;51.436;6.774;2023-07-22T00:23:16;13.93;;;8.25;;
13611;SDS011;6877;51.436;6.774;2023-07-22T00:25:43;12.70;;;7.97;;
13611;SDS011;6877;51.436;6.774;2023-07-22T00:28:09;13.40;;;7.57;;
13611;SDS011;6877;51.436;6.774;2023-07-22T00:30:36;17.05;;;7.10;;
13611;SDS011;6877;51.436;6.774;2023-07-22T00:33:03;16.08;;;8.23;;
13611;SDS011;6877;51.436;6.774;2023-07-22T00:35:29;13.32;;;7.50;;
13611;SDS011;6877;51.436;6.774;2023-07-22T00:37:58;12.75;;;7.13;;
13611;SDS011;6877;51.436;6.774;2023-07-22T00:40:26;14.32;;;7.78;;
13611;SDS011;6877;51.436;6.774;2023-07-22T00:42:53;14.10;;;7.40;;
13611;SDS011;6877;51.436;6.774;2023-07-22T00:45:19;12.32;;;7.60;;
13611;SDS011;6877;51.436;6.774;2023-07-22T00:47:46;16.40;;;8.50;;
13611;SDS011;6877;51.436;6.774;2023-07-22T00:50:13;13.60;;;7.57;;
13611;SDS011;6877;51.436;6.774;2023-07-22T00:52:43;12.68;;;7.47;;
13611;SDS011;6877;51.436;6.774;2023-07-22T00:55:10;13.00;;;7.00;;
13611;SDS011;6877;51.436;6.774;2023-07-22T00:57:37;12.95;;;7.93;;
13611;SDS011;6877;51.436;6.774;2023-07-22T01:00:04;15.07;;;8.30;;
13611;SDS011;6877;51.436;6.774;2023-07-22T01:02:32;16.00;;;7.68;;
13611;SDS011;6877;51.436;6.774;2023-07-22T01:05:00;12.23;;;7.68;;
13611;SDS011;6877;51.436;6.774;2023-07-22T01:07:30;11.90;;;7.60;;
13611;SDS011;6877;51.436;6.774;2023-07-22T01:09:56;13.90;;;7.57;;
13611;SDS011;6877;51.436;6.774;2023-07-22T01:12:26;14.07;;;7.18;;
13611;SDS011;6877;51.436;6.774;2023-07-22T01:14:53;14.25;;;7.30;;
13611;SDS011;6877;51.436;6.774;2023-07-22T01:17:19;15.95;;;7.60;;
13611;SDS011;6877;51.436;6.774;2023-07-22T01:19:46;13.93;;;7.97;;
13611;SDS011;6877;51.436;6.774;2023-07-22T01:22:14;12.05;;;6.97;;
13611;SDS011;6877;51.436;6.774;2023-07-22T01:24:42;12.90;;;7.45;;
13611;SDS011;6877;51.436;6.774;2023-07-22T01:27:09;13.43;;;7.88;;
13611;SDS011;6877;51.436;6.774;2023-07-22T01:29:36;11.18;;;6.97;;
13611;SDS011;6877;51.436;6.774;2023-07-22T01:32:05;15.40;;;7.88;;
13611;SDS011;6877;51.436;6.774;2023-07-22T01:34:32;12.60;;;7.47;;
13611;SDS011;6877;51.436;6.774;2023-07-22T01:36:59;11.00;;;7.38;;
13611;SDS011;6877;51.436;6.774;2023-07-22T01:39:26;20.13;;;9.02;;
13611;SDS011;6877;51.436;6.774;2023-07-22T01:41:53;17.10;;;8.15;;
13611;SDS011;6877;51.436;6.774;2023-07-22T01:44:20;13.45;;;7.80;;
13611;SDS011;6877;51.436;6.774;2023-07-22T01:46:46;12.38;;;7.65;;
13611;SDS011;6877;51.436;6.774;2023-07-22T01:49:13;13.68;;;8.45;;
13611;SDS011;6877;51.436;6.774;2023-07-22T01:51:40;12.73;;;7.72;;
13611;SDS011;6877;51.436;6.774;2023-07-22T01:54:06;13.50;;;7.28;;
13611;SDS011;6877;51.436;6.774;2023-07-22T01:56:35;15.75;;;7.95;;
13611;SDS011;6877;51.436;6.774;2023-07-22T01:59:02;12.93;;;7.70;;
13611;SDS011;6877;51.436;6.774;2023-07-22T02:01:28;11.57;;;6.72;;
13611;SDS011;6877;51.436;6.774;2023-07-22T02:03:55;14.98;;;7.68;;
13611;SDS011;6877;51.436;6.774;2023-07-22T02:06:22;12.98;;;7.05;;
13611;SDS011;6877;51.436;6.774;2023-07-22T02:08:54;16.20;;;7.90;;
13611;SDS011;6877;51.436;6.774;2023-07-22T02:11:21;20.00;;;7.68;;
13611;SDS011;6877;51.436;6.774;2023-07-22T02:13:47;13.13;;;6.93;;
13611;SDS011;6877;51.436;6.774;2023-07-22T02:16:13;15.85;;;8.15;;
13611;SDS011;6877;51.436;6.774;2023-07-22T02:18:40;14.85;;;7.45;;
13611;SDS011;6877;51.436;6.774;2023-07-22T02:21:06;15.63;;;8.48;;
13611;SDS011;6877;51.436;6.774;2023-07-22T02:23:33;14.18;;;8.05;;
13611;SDS011;6877;51.436;6.774;2023-07-22T02:26:00;13.65;;;7.20;;
13611;SDS011;6877;51.436;6.774;2023-07-22T02:28:27;17.30;;;8.40;;
13611;SDS011;6877;51.436;6.774;2023-07-22T02:30:53;15.57;;;8.15;;
13611;SDS011;6877;51.436;6.774;2023-07-22T02:33:20;12.50;;;7.20;;
13611;SDS011;6877;51.436;6.774;2023-07-22T02:35:48;12.40;;;7.75;;
13611;SDS011;6877;51.436;6.774;2023-07-22T02:38:15;14.20;;;8.68;;
13611;SDS011;6877;51.436;6.774;2023-07-22T02:40:41;13.57;;;7.97;;
13611;SDS011;6877;51.436;6.774;2023-07-22T02:43:08;14.35;;;8.05;;
13611;SDS011;6877;51.436;6.774;2023-07-22T02:45:34;15.13;;;7.43;;
13611;SDS011;6877;51.436;6.774;2023-07-22T02:48:02;13.30;;;7.25;;
13611;SDS011;6877;51.436;6.774;2023-07-22T02:50:30;16.30;;;7.35;;
13611;SDS011;6877;51.436;6.774;2023-07-22T02:52:56;12.60;;;7.38;;
13611;SDS011;6877;51.436;6.774;2023-07-22T02:55:23;14.63;;;8.13;;
13611;SDS011;6877;51.436;6.774;2023-07-22T02:57:49;19.23;;;8.30;;
13611;SDS011;6877;51.436;6.774;2023-07-22T03:00:17;14.23;;;7.55;;
13611;SDS011;6877;51.436;6.774;2023-07-22T03:02:53;15.10;;;7.97;;
13611;SDS011;6877;51.436;6.774;2023-07-22T03:05:27;18.55;;;7.85;;
13611;SDS011;6877;51.436;6.774;2023-07-22T03:07:54;13.45;;;8.15;;
13611;SDS011;6877;51.436;6.774;2023-07-22T03:10:21;10.88;;;6.68;;
13611;SDS011;6877;51.436;6.774;2023-07-22T03:12:48;13.60;;;7.78;;
13611;SDS011;6877;51.436;6.774;2023-07-22T03:15:15;11.25;;;6.70;;
13611;SDS011;6877;51.436;6.774;2023-07-22T03:17:42;11.13;;;6.68;;
13611;SDS011;6877;51.436;6.774;2023-07-22T03:20:08;11.63;;;6.38;;
13611;SDS011;6877;51.436;6.774;2023-07-22T03:22:40;13.98;;;7.40;;
13611;SDS011;6877;51.436;6.774;2023-07-22T03:25:10;15.30;;;6.35;;
13611;SDS011;6877;51.436;6.774;2023-07-22T03:27:38;14.27;;;7.25;;
13611;SDS011;6877;51.436;6.774;2023-07-22T03:30:05;12.60;;;5.95;;
13611;SDS011;6877;51.436;6.774;2023-07-22T03:32:34;12.43;;;6.65;;
13611;SDS011;6877;51.436;6.774;2023-07-22T03:35:06;14.63;;;6.55;;
13611;SDS011;6877;51.436;6.774;2023-07-22T03:37:34;11.43;;;6.22;;
13611;SDS011;6877;51.436;6.774;2023-07-22T03:40:06;15.05;;;7.25;;
13611;SDS011;6877;51.436;6.774;2023-07-22T03:42:35;14.48;;;6.15;;
13611;SDS011;6877;51.436;6.774;2023-07-22T03:45:01;14.32;;;6.75;;
13611;SDS011;6877;51.436;6.774;2023-07-22T03:47:28;11.70;;;6.40;;
13611;SDS011;6877;51.436;6.774;2023-07-22T03:49:54;20.08;;;6.93;;
13611;SDS011;6877;51.436;6.774;2023-07-22T03:52:21;12.10;;;6.90;;
13611;SDS011;6877;51.436;6.774;2023-07-22T03:54:48;16.98;;;7.22;;
13611;SDS011;6877;51.436;6.774;2023-07-22T03:57:14;11.13;;;6.50;;
13611;SDS011;6877;51.436;6.774;2023-07-22T03:59:41;11.63;;;6.80;;
13611;SDS011;6877;51.436;6.774;2023-07-22T04:02:07;20.00;;;7.65;;
13611;SDS011;6877;51.436;6.774;2023-07-22T04:04:34;12.52;;;6.68;;
13611;SDS011;6877;51.436;6.774;2023-07-22T04:07:00;14.23;;;8.13;;
13611;SDS011;6877;51.436;6.774;2023-07-22T04:09:27;16.52;;;7.32;;
13611;SDS011;6877;51.436;6.774;2023-07-22T04:11:53;16.33;;;7.45;;
13611;SDS011;6877;51.436;6.774;2023-07-22T04:14:20;12.40;;;7.22;;
13611;SDS011;6877;51.436;6.774;2023-07-22T04:16:46;16.77;;;7.97;;
13611;SDS011;6877;51.436;6.774;2023-07-22T04:19:13;14.68;;;7.43;;
13611;SDS011;6877;51.436;6.774;2023-07-22T04:21:46;12.52;;;7.13;;
13611;SDS011;6877;51.436;6.774;2023-07-22T04:24:13;14.05;;;7.60;;
13611;SDS011;6877;51.436;6.774;2023-07-22T04:26:43;17.45;;;6.40;;
13611;SDS011;6877;51.436;6.774;2023-07-22T04:29:09;10.90;;;6.38;;
13611;SDS011;6877;51.436;6.774;2023-07-22T04:31:38;16.00;;;6.95;;
13611;SDS011;6877;51.436;6.774;2023-07-22T04:34:05;11.68;;;6.80;;
13611;SDS011;6877;51.436;6.774;2023-07-22T04:36:32;12.40;;;6.68;;
13611;SDS011;6877;51.436;6.774;2023-07-22T04:38:59;15.30;;;8.45;;
13611;SDS011;6877;51.436;6.774;2023-07-22T04:41:25;14.68;;;7.30;;
13611;SDS011;6877;51.436;6.774;2023-07-22T04:43:52;13.15;;;7.05;;
13611;SDS011;6877;51.436;6.774;2023-07-22T04:46:19;10.75;;;6.32;;
13611;SDS011;6877;51.436;6.774;2023-07-22T04:48:45;12.82;;;7.15;;
13611;SDS011;6877;51.436;6.774;2023-07-22T04:51:12;16.83;;;7.43;;
13611;SDS011;6877;51.436;6.774;2023-07-22T04:53:39;14.48;;;7.57;;
13611;SDS011;6877;51.436;6.774;2023-07-22T04:56:05;13.95;;;7.07;;
13611;SDS011;6877;51.436;6.774;2023-07-22T04:58:32;13.77;;;7.03;;
13611;SDS011;6877;51.436;6.774;2023-07-22T05:00:58;14.57;;;7.55;;
13611;SDS011;6877;51.436;6.774;2023-07-22T05:03:25;11.43;;;7.28;;
13611;SDS011;6877;51.436;6.774;2023-07-22T05:05:52;14.07;;;7.55;;
13611;SDS011;6877;51.436;6.774;2023-07-22T05:08:19;13.10;;;6.50;;
13611;SDS011;6877;51.436;6.774;2023-07-22T05:10:46;15.75;;;8.70;;
13611;SDS011;6877;51.436;6.774;2023-07-22T05:13:12;18.73;;;7.10;;
13611;SDS011;6877;51.436;6.774;2023-07-22T05:15:39;13.55;;;7.00;;
13611;SDS011;6877;51.436;6.774;2023-07-22T05:18:05;15.43;;;6.72;;
13611;SDS011;6877;51.436;6.774;2023-07-22T05:20:32;16.02;;;7.00;;
13611;SDS011;6877;51.436;6.774;2023-07-22T05:22:58;10.68;;;6.20;;
13611;SDS011;6877;51.436;6.774;2023-07-22T05:25:25;14.00;;;6.72;;
13611;SDS011;6877;51.436;6.774;2023-07-22T05:27:51;14.68;;;5.68;;
13611;SDS011;6877;51.436;6.774;2023-07-22T05:30:18;12.52;;;5.95;;
13611;SDS011;6877;51.436;6.774;2023-07-22T05:32:44;12.32;;;6.72;;
13611;SDS011;6877;51.436;6.774;2023-07-22T05:35:11;20.17;;;6.80;;
13611;SDS011;6877;51.436;6.774;2023-07-22T05:37:42;15.43;;;6.38;;
13611;SDS011;6877;51.436;6.774;2023-07-22T05:40:09;14.25;;;6.38;;
13611;SDS011;6877;51.436;6.774;2023-07-22T05:42:36;15.55;;;7.18;;
13611;SDS011;6877;51.436;6.774;2023-07-22T05:45:03;14.63;;;6.90;;
13611;SDS011;6877;51.436;6.774;2023-07-22T05:47:30;15.93;;;7.45;;
13611;SDS011;6877;51.436;6.774;2023-07-22T05:49:56;26.08;;;7.72;;
13611;SDS011;6877;51.436;6.774;2023-07-22T05:52:23;16.67;;;7.45;;
13611;SDS011;6877;51.436;6.774;2023-07-22T05:54:50;16.95;;;7.18;;
13611;SDS011;6877;51.436;6.774;2023-07-22T05:57:16;19.75;;;7.85;;
13611;SDS011;6877;51.436;6.774;2023-07-22T05:59:44;14.10;;;7.22;;
13611;SDS011;6877;51.436;6.774;2023-07-22T06:02:12;17.08;;;7.82;;
13611;SDS011;6877;51.436;6.774;2023-07-22T06:04:39;27.90;;;7.55;;
13611;SDS011;6877;51.436;6.774;2023-07-22T06:07:05;17.30;;;8.15;;
13611;SDS011;6877;51.436;6.774;2023-07-22T06:09:32;17.65;;;7.72;;
13611;SDS011;6877;51.436;6.774;2023-07-22T06:11:59;13.60;;;7.75;;
13611;SDS011;6877;51.436;6.774;2023-07-22T06:14:25;22.00;;;8.32;;
13611;SDS011;6877;51.436;6.774;2023-07-22T06:16:52;18.77;;;9.18;;
13611;SDS011;6877;51.436;6.774;2023-07-22T06:19:19;19.52;;;8.30;;
13611;SDS011;6877;51.436;6.774;2023-07-22T06:21:45;17.40;;;8.32;;
13611;SDS011;6877;51.436;6.774;2023-07-22T06:24:17;13.68;;;6.63;;
13611;SDS011;6877;51.436;6.774;2023-07-22T06:26:43;21.70;;;7.72;;
13611;SDS011;6877;51.436;6.774;2023-07-22T06:29:10;13.27;;;7.63;;
13611;SDS011;6877;51.436;6.774;2023-07-22T06:31:36;15.45;;;7.70;;
13611;SDS011;6877;51.436;6.774;2023-07-22T06:34:03;12.65;;;7.57;;
13611;SDS011;6877;51.436;6.774;2023-07-22T06:36:29;20.63;;;8.20;;
13611;SDS011;6877;51.436;6.774;2023-07-22T06:38:56;13.05;;;6.97;;
13611;SDS011;6877;51.436;6.774;2023-07-22T06:41:23;15.88;;;8.15;;
13611;SDS011;6877;51.436;6.774;2023-07-22T06:43:50;18.75;;;7.97;;
13611;SDS011;6877;51.436;6.774;2023-07-22T06:46:17;16.27;;;7.32;;
13611;SDS011;6877;51.436;6.774;2023-07-22T06:48:44;13.70;;;7.45;;
13611;SDS011;6877;51.436;6.774;2023-07-22T06:51:10;19.13;;;7.90;;
13611;SDS011;6877;51.436;6.774;2023-07-22T06:53:42;14.15;;;7.50;;
13611;SDS011;6877;51.436;6.774;2023-07-22T06:56:08;19.98;;;7.60;;
13611;SDS011;6877;51.436;6.774;2023-07-22T06:58:40;14.73;;;8.57;;
13611;SDS011;6877;51.436;6.774;2023-07-22T07:01:06;14.40;;;8.32;;
13611;SDS011;6877;51.436;6.774;2023-07-22T07:03:33;19.83;;;9.68;;
13611;SDS011;6877;51.436;6.774;2023-07-22T07:05:59;18.75;;;8.00;;
13611;SDS011;6877;51.436;6.774;2023-07-22T07:08:25;17.77;;;8.30;;
13611;SDS011;6877;51.436;6.774;2023-07-22T07:10:52;18.33;;;8.82;;
13611;SDS011;6877;51.436;6.774;2023-07-22T07:13:18;14.25;;;7.53;;
13611;SDS011;6877;51.436;6.774;2023-07-22T07:15:46;14.77;;;8.27;;
13611;SDS011;6877;51.436;6.774;2023-07-22T07:18:14;15.98;;;8.38;;
13611;SDS011;6877;51.436;6.774;2023-07-22T07:20:41;17.70;;;7.38;;
13611;SDS011;6877;51.436;6.774;2023-07-22T07:23:07;16.65;;;8.68;;
13611;SDS011;6877;51.436;6.774;2023-07-22T07:25:34;20.30;;;8.55;;
13611;SDS011;6877;51.436;6.774;2023-07-22T07:28:00;16.42;;;8.40;;
13611;SDS011;6877;51.436;6.774;2023-07-22T07:30:27;15.10;;;7.55;;
13611;SDS011;6877;51.436;6.774;2023-07-22T07:32:53;14.48;;;7.78;;
13611;SDS011;6877;51.436;6.774;2023-07-22T07:35:19;16.63;;;7.50;;
13611;SDS011;6877;51.436;6.774;2023-07-22T07:37:46;14.10;;;7.78;;
13611;SDS011;6877;51.436;6.774;2023-07-22T07:40:13;12.10;;;7.20;;
13611;SDS011;6877;51.436;6.774;2023-07-22T07:42:39;16.92;;;8.38;;
13611;SDS011;6877;51.436;6.774;2023-07-22T07:45:06;13.15;;;7.88;;
13611;SDS011;6877;51.436;6.774;2023-07-22T07:47:33;15.18;;;7.40;;
13611;SDS011;6877;51.436;6.774;2023-07-22T07:50:00;17.92;;;7.60;;
13611;SDS011;6877;51.436;6.774;2023-07-22T07:52:26;18.55;;;8.70;;
13611;SDS011;6877;51.436;6.774;2023-07-22T07:54:52;20.73;;;8.13;;
13611;SDS011;6877;51.436;6.774;2023-07-22T07:57:19;16.77;;;8.65;;
13611;SDS011;6877;51.436;6.774;2023-07-22T07:59:45;15.55;;;7.40;;
13611;SDS011;6877;51.436;6.774;2023-07-22T08:02:12;16.17;;;8.02;;
13611;SDS011;6877;51.436;6.774;2023-07-22T08:04:38;18.02;;;7.65;;
13611;SDS011;6877;51.436;6.774;2023-07-22T08:07:05;18.83;;;7.47;;
13611;SDS011;6877;51.436;6.774;2023-07-22T08:09:32;15.95;;;7.55;;
13611;SDS011;6877;51.436;6.774;2023-07-22T08:12:04;16.25;;;8.23;;
13611;SDS011;6877;51.436;6.774;2023-07-22T08:14:31;10.65;;;6.13;;
13611;SDS011;6877;51.436;6.774;2023-07-22T08:16:57;13.45;;;7.40;;
13611;SDS011;6877;51.436;6.774;2023-07-22T08:19:24;13.15;;;7.57;;
13611;SDS011;6877;51.436;6.774;2023-07-22T08:21:50;13.35;;;6.40;;
13611;SDS011;6877;51.436;6.774;2023-07-22T08:24:17;8.88;;;5.82;;
13611;SDS011;6877;51.436;6.774;2023-07-22T08:26:43;12.18;;;6.30;;
13611;SDS011;6877;51.436;6.774;2023-07-22T08:29:10;12.20;;;6.63;;
13611;SDS011;6877;51.436;6.774;2023-07-22T08:31:37;12.90;;;5.50;;
13611;SDS011;6877;51.436;6.774;2023-07-22T08:34:03;10.70;;;6.60;;
13611;SDS011;6877;51.436;6.774;2023-07-22T08:36:30;12.25;;;5.90;;
13611;SDS011;6877;51.436;6.774;2023-07-22T08:38:56;9.88;;;5.47;;
13611;SDS011;6877;51.436;6.774;2023-07-22T08:41:23;9.38;;;5.25;;
13611;SDS011;6877;51.436;6.774;2023-07-22T08:43:51;11.25;;;5.85;;
13611;SDS011;6877;51.436;6.774;2023-07-22T08:46:20;9.23;;;5.68;;
13611;SDS011;6877;51.436;6.774;2023-07-22T08:48:53;7.57;;;5.28;;
13611;SDS011;6877;51.436;6.774;2023-07-22T08:51:20;6.75;;;4.78;;
13611;SDS011;6877;51.436;6.774;2023-07-22T08:53:54;8.85;;;5.03;;
13611;SDS011;6877;51.436;6.774;2023-07-22T08:56:25;8.13;;;5.13;;
13611;SDS011;6877;51.436;6.774;2023-07-22T08:58:52;9.88;;;5.13;;
13611;SDS011;6877;51.436;6.774;2023-07-22T09:01:24;8.93;;;5.07;;
13611;SDS011;6877;51.436;6.774;2023-07-22T09:03:51;8.20;;;4.75;;
13611;SDS011;6877;51.436;6.774;2023-07-22T09:06:19;5.53;;;4.38;;
13611;SDS011;6877;51.436;6.774;2023-07-22T09:08:46;14.27;;;4.97;;
13611;SDS011;6877;51.436;6.774;2023-07-22T09:11:13;6.05;;;4.13;;
13611;SDS011;6877;51.436;6.774;2023-07-22T09:13:44;6.82;;;4.53;;
13611;SDS011;6877;51.436;6.774;2023-07-22T09:16:14;8.00;;;4.10;;
13611;SDS011;6877;51.436;6.774;2023-07-22T09:18:46;6.20;;;4.22;;
13611;SDS011;6877;51.436;6.774;2023-07-22T09:21:13;8.73;;;3.75;;
13611;SDS011;6877;51.436;6.774;2023-07-22T09:23:39;4.85;;;3.45;;
13611;SDS011;6877;51.436;6.774;2023-07-22T09:26:13;4.80;;;3.25;;
13611;SDS011;6877;51.436;6.774;2023-07-22T09:28:50;5.13;;;3.22;;
13611;SDS011;6877;51.436;6.774;2023-07-22T09:31:20;4.45;;;3.03;;
13611;SDS011;6877;51.436;6.774;2023-07-22T09:33:51;4.13;;;3.42;;
13611;SDS011;6877;51.436;6.774;2023-07-22T09:36:20;3.78;;;3.15;;
13611;SDS011;6877;51.436;6.774;2023-07-22T09:38:59;6.15;;;2.75;;
13611;SDS011;6877;51.436;6.774;2023-07-22T09:41:29;4.57;;;3.60;;
13611;SDS011;6877;51.436;6.774;2023-07-22T09:44:02;5.70;;;3.00;;
13611;SDS011;6877;51.436;6.774;2023-07-22T09:46:32;5.18;;;2.92;;
13611;SDS011;6877;51.436;6.774;2023-07-22T09:49:02;4.80;;;3.25;;
13611;SDS011;6877;51.436;6.774;2023-07-22T09:51:34;5.28;;;2.78;;
13611;SDS011;6877;51.436;6.774;2023-07-22T09:54:02;6.07;;;3.28;;
13611;SDS011;6877;51.436;6.774;2023-07-22T09:56:30;3.63;;;2.60;;
13611;SDS011;6877;51.436;6.774;2023-07-22T09:58:58;7.63;;;3.28;;
13611;SDS011;6877;51.436;6.774;2023-07-22T10:01:26;5.97;;;2.50;;
13611;SDS011;6877;51.436;6.774;2023-07-22T10:03:53;3.38;;;2.80;;
13611;SDS011;6877;51.436;6.774;2023-07-22T10:06:26;5.85;;;2.90;;
13611;SDS011;6877;51.436;6.774;2023-07-22T10:08:56;6.15;;;3.35;;
13611;SDS011;6877;51.436;6.774;2023-07-22T10:11:34;4.20;;;2.88;;
13611;SDS011;6877;51.436;6.774;2023-07-22T10:14:02;4.15;;;3.25;;
13611;SDS011;6877;51.436;6.774;2023-07-22T10:16:29;6.18;;;3.10;;
13611;SDS011;6877;51.436;6.774;2023-07-22T10:18:56;5.05;;;3.28;;
13611;SDS011;6877;51.436;6.774;2023-07-22T10:21:24;5.35;;;2.75;;
13611;SDS011;6877;51.436;6.774;2023-07-22T10:23:51;5.43;;;2.70;;
13611;SDS011;6877;51.436;6.774;2023-07-22T10:26:19;4.25;;;2.92;;
13611;SDS011;6877;51.436;6.774;2023-07-22T10:28:46;4.40;;;2.83;;
13611;SDS011;6877;51.436;6.774;2023-07-22T10:31:18;5.63;;;2.58;;
13611;SDS011;6877;51.436;6.774;2023-07-22T10:33:45;5.13;;;2.25;;
13611;SDS011;6877;51.436;6.774;2023-07-22T10:36:16;4.57;;;2.17;;
13611;SDS011;6877;51.436;6.774;2023-07-22T10:38:43;4.55;;;2.10;;
13611;SDS011;6877;51.436;6.774;2023-07-22T10:41:13;4.00;;;2.65;;
13611;SDS011;6877;51.436;6.774;2023-07-22T10:43:53;4.32;;;2.35;;
13611;SDS011;6877;51.436;6.774;2023-07-22T10:49:24;6.63;;;2.63;;
13611;SDS011;6877;51.436;6.774;2023-07-22T10:51:53;3.38;;;2.50;;
13611;SDS011;6877;51.436;6.774;2023-07-22T10:54:33;4.78;;;2.33;;
13611;SDS011;6877;51.436;6.774;2023-07-22T10:57:02;5.78;;;1.92;;
13611;SDS011;6877;51.436;6.774;2023-07-22T10:59:47;4.97;;;2.90;;
13611;SDS011;6877;51.436;6.774;2023-07-22T11:02:25;4.50;;;2.25;;
13611;SDS011;6877;51.436;6.774;2023-07-22T11:04:57;10.43;;;2.25;;
13611;SDS011;6877;51.436;6.774;2023-07-22T11:07:32;8.07;;;2.20;;
13611;SDS011;6877;51.436;6.774;2023-07-22T11:10:10;4.38;;;2.80;;
13611;SDS011;6877;51.436;6.774;2023-07-22T11:12:45;2.15;;;1.70;;
13611;SDS011;6877;51.436;6.774;2023-07-22T11:15:14;2.75;;;1.90;;
13611;SDS011;6877;51.436;6.774;2023-07-22T11:17:42;4.30;;;2.10;;
13611;SDS011;6877;51.436;6.774;2023-07-22T11:20:08;3.20;;;2.10;;
13611;SDS011;6877;51.436;6.774;2023-07-22T11:22:38;3.65;;;1.73;;
13611;SDS011;6877;51.436;6.774;2023-07-22T11:25:06;6.03;;;2.72;;
13611;SDS011;6877;51.436;6.774;2023-07-22T11:27:33;4.47;;;2.20;;
13611;SDS011;6877;51.436;6.774;2023-07-22T11:29:59;3.25;;;1.98;;
13611;SDS011;6877;51.436;6.774;2023-07-22T11:32:34;4.30;;;2.78;;
13611;SDS011;6877;51.436;6.774;2023-07-22T11:35:06;7.43;;;2.08;;
13611;SDS011;6877;51.436;6.774;2023-07-22T11:37:33;4.97;;;2.13;;
13611;SDS011;6877;51.436;6.774;2023-07-22T11:40:00;5.90;;;3.20;;
13611;SDS011;6877;51.436;6.774;2023-07-22T11:42:27;3.75;;;2.50;;
13611;SDS011;6877;51.436;6.774;2023-07-22T11:45:00;4.78;;;2.58;;
13611;SDS011;6877;51.436;6.774;2023-07-22T11:47:30;6.35;;;2.72;;
13611;SDS011;6877;51.436;6.774;2023-07-22T11:49:59;4.50;;;2.63;;
13611;SDS011;6877;51.436;6.774;2023-07-22T11:52:26;4.43;;;2.90;;
13611;SDS011;6877;51.436;6.774;2023-07-22T11:54:53;4.20;;;2.53;;
13611;SDS011;6877;51.436;6.774;2023-07-22T11:57:20;7.07;;;2.92;;
13611;SDS011;6877;51.436;6.774;2023-07-22T11:59:48;3.20;;;2.42;;
13611;SDS011;6877;51.436;6.774;2023-07-22T12:02:19;3.63;;;2.20;;
13611;SDS011;6877;51.436;6.774;2023-07-22T12:04:51;6.03;;;1.75;;
13611;SDS011;6877;51.436;6.774;2023-07-22T12:07:22;3.35;;;1.70;;
13611;SDS011;6877;51.436;6.774;2023-07-22T12:09:53;3.88;;;2.28;;
13611;SDS011;6877;51.436;6.774;2023-07-22T12:12:20;2.40;;;1.80;;
13611;SDS011;6877;51.436;6.774;2023-07-22T12:14:47;4.13;;;1.88;;
13611;SDS011;6877;51.436;6.774;2023-07-22T12:17:13;4.30;;;1.88;;
13611;SDS011;6877;51.436;6.774;2023-07-22T12:19:50;8.40;;;2.42;;
13611;SDS011;6877;51.436;6.774;2023-07-22T12:22:17;4.03;;;2.20;;
13611;SDS011;6877;51.436;6.774;2023-07-22T12:24:46;4.47;;;2.03;;
13611;SDS011;6877;51.436;6.774;2023-07-22T12:27:13;5.90;;;3.25;;
13611;SDS011;6877;51.436;6.774;2023-07-22T12:29:40;3.58;;;2.33;;
13611;SDS011;6877;51.436;6.774;2023-07-22T12:32:06;3.58;;;2.53;;
13611;SDS011;6877;51.436;6.774;2023-07-22T12:34:33;5.50;;;2.78;;
13611;SDS011;6877;51.436;6.774;2023-07-22T12:37:00;4.88;;;3.03;;
13611;SDS011;6877;51.436;6.774;2023-07-22T12:39:26;5.03;;;2.80;;
13611;SDS011;6877;51.436;6.774;2023-07-22T12:41:54;4.43;;;2.42;;
13611;SDS011;6877;51.436;6.774;2023-07-22T12:44:21;6.68;;;3.15;;
13611;SDS011;6877;51.436;6.774;2023-07-22T12:46:47;5.97;;;2.63;;
13611;SDS011;6877;51.436;6.774;2023-07-22T12:49:14;3.58;;;2.28;;
13611;SDS011;6877;51.436;6.774;2023-07-22T12:51:45;3.55;;;2.58;;
13611;SDS011;6877;51.436;6.774;2023-07-22T12:54:17;5.13;;;3.25;;
13611;SDS011;6877;51.436;6.774;2023-07-22T12:56:43;3.35;;;2.13;;
13611;SDS011;6877;51.436;6.774;2023-07-22T12:59:10;3.85;;;2.20;;
13611;SDS011;6877;51.436;6.774;2023-07-22T13:01:36;4.00;;;2.95;;
13611;SDS011;6877;51.436;6.774;2023-07-22T13:04:05;3.92;;;2.70;;
13611;SDS011;6877;51.436;6.774;2023-07-22T13:06:36;3.85;;;2.55;;
13611;SDS011;6877;51.436;6.774;2023-07-22T13:09:04;5.45;;;2.20;;
13611;SDS011;6877;51.436;6.774;2023-07-22T13:11:30;6.35;;;2.70;;
13611;SDS011;6877;51.436;6.774;2023-07-22T13:13:57;3.80;;;2.53;;
13611;SDS011;6877;51.436;6.774;2023-07-22T13:16:23;2.92;;;2.30;;
13611;SDS011;6877;51.436;6.774;2023-07-22T13:18:49;2.45;;;2.25;;
13611;SDS011;6877;51.436;6.774;2023-07-22T13:21:21;4.53;;;2.60;;
13611;SDS011;6877;51.436;6.774;2023-07-22T13:23:47;4.35;;;2.55;;
13611;SDS011;6877;51.436;6.774;2023-07-22T13:26:14;4.57;;;2.88;;
13611;SDS011;6877;51.436;6.774;2023-07-22T13:28:41;6.70;;;3.00;;
13611;SDS011;6877;51.436;6.774;2023-07-22T13:31:07;7.10;;;2.78;;
13611;SDS011;6877;51.436;6.774;2023-07-22T13:33:39;4.10;;;2.80;;
13611;SDS011;6877;51.436;6.774;2023-07-22T13:36:06;4.15;;;2.90;;
13611;SDS011;6877;51.436;6.774;2023-07-22T13:38:38;5.32;;;2.22;;
13611;SDS011;6877;51.436;6.774;2023-07-22T13:41:04;4.72;;;2.72;;
13611;SDS011;6877;51.436;6.774;2023-07-22T13:43:31;4.00;;;2.67;;
13611;SDS011;6877;51.436;6.774;2023-07-22T13:45:57;6.90;;;3.03;;
13611;SDS011;6877;51.436;6.774;2023-07-22T13:48:24;5.75;;;2.35;;
13611;SDS011;6877;51.436;6.774;2023-07-22T13:50:50;4.32;;;2.60;;
13611;SDS011;6877;51.436;6.774;2023-07-22T13:53:17;6.25;;;2.65;;
13611;SDS011;6877;51.436;6.774;2023-07-22T13:55:43;4.10;;;2.63;;
13611;SDS011;6877;51.436;6.774;2023-07-22T13:58:10;5.63;;;3.03;;
13611;SDS011;6877;51.436;6.774;2023-07-22T14:00:40;7.00;;;2.78;;
13611;SDS011;6877;51.436;6.774;2023-07-22T14:03:06;3.47;;;2.10;;
13611;SDS011;6877;51.436;6.774;2023-07-22T14:05:33;3.40;;;2.25;;
13611;SDS011;6877;51.436;6.774;2023-07-22T14:07:59;6.13;;;2.97;;
13611;SDS011;6877;51.436;6.774;2023-07-22T14:10:26;4.38;;;2.88;;
13611;SDS011;6877;51.436;6.774;2023-07-22T14:12:52;4.25;;;2.50;;
13611;SDS011;6877;51.436;6.774;2023-07-22T14:15:19;5.07;;;2.47;;
13611;SDS011;6877;51.436;6.774;2023-07-22T14:17:45;3.70;;;2.28;;
13611;SDS011;6877;51.436;6.774;2023-07-22T14:20:12;4.15;;;2.38;;
13611;SDS011;6877;51.436;6.774;2023-07-22T14:22:39;6.72;;;3.70;;
13611;SDS011;6877;51.436;6.774;2023-07-22T14:25:10;8.27;;;5.15;;
13611;SDS011;6877;51.436;6.774;2023-07-22T14:27:42;5.55;;;3.10;;
13611;SDS011;6877;51.436;6.774;2023-07-22T14:30:09;4.95;;;2.53;;
13611;SDS011;6877;51.436;6.774;2023-07-22T14:32:35;3.70;;;2.28;;
13611;SDS011;6877;51.436;6.774;2023-07-22T14:35:02;3.53;;;2.65;;
13611;SDS011;6877;51.436;6.774;2023-07-22T14:37:35;4.53;;;2.28;;
13611;SDS011;6877;51.436;6.774;2023-07-22T14:40:04;4.90;;;2.63;;
13611;SDS011;6877;51.436;6.774;2023-07-22T14:42:31;3.47;;;2.28;;
13611;SDS011;6877;51.436;6.774;2023-07-22T14:45:02;7.00;;;2.97;;
13611;SDS011;6877;51.436;6.774;2023-07-22T14:47:34;2.83;;;2.05;;
13611;SDS011;6877;51.436;6.774;2023-07-22T14:50:01;3.80;;;2.80;;
13611;SDS011;6877;51.436;6.774;2023-07-22T14:52:28;3.13;;;2.40;;
13611;SDS011;6877;51.436;6.774;2023-07-22T14:54:54;5.68;;;3.35;;
13611;SDS011;6877;51.436;6.774;2023-07-22T14:57:21;4.25;;;2.25;;
13611;SDS011;6877;51.436;6.774;2023-07-22T14:59:47;4.53;;;3.20;;